Torrington, WY (82240)

12:59 AM MDT on October 26, 2014 (GMT -0600)
MesoWest TORRINGTON #1 WY US SCAN | Change Station
CLOSE
Current Station
Personal Weather Station
Location: Torrington, WY
Elevation: 4279 ft
Nearby Weather Stations

Elev 4279 ft 42.07 °N, 104.13 °W | Updated 59 minutes ago

Clear
Clear
46 °F
Feels Like 46 °F
N
1
Wind Variable Wind from ESE
Gusts 0.0 mph

Today
High -- | Low -- °F
--% Chance of Precip.
Yesterday
High -- | Low -- °F
Precip. -- in
7:22 AM 5:58 PM
Waxing Crescent, 6% visible
Pressure 29.79 in
Visibility 10.0 miles
Clouds Clear
Windchill 46 °F
Dew Point 35 °F
Humidity 65%
Rainfall -999.00 in
Snow Depth Not available.
UV 0 out of 12
Pollen 2.00 out of 12
Air Quality Not available.
Flu Activity Not available.
METAR KTOR 260653Z AUTO 08011KT 10SM CLR 07/02 A2987 RMK AO2 SLP086 T00720017 402670017

More Conditions Fewer Conditions

Pressure 29.79 in
Visibility 10.0 miles
Clouds Clear
Windchill 46 °F
Dew Point 35 °F
Humidity 65%
Rainfall -999.00 in
Snow Depth Not available.
UV 0 out of 12
Pollen 2.00 out of 12
Air Quality Not available.
Flu Activity Not available.
METAR KTOR 260653Z AUTO 08011KT 10SM CLR 07/02 A2987 RMK AO2 SLP086 T00720017 402670017

More Conditions Fewer Conditions

10-Day Weather Forecast

Almanac

Astronomy

Oct. 26, 2014 Rise Set
Actual Time 7:22 AM MDT 5:58 PM MDT
Civil Twilight 6:53 AM MDT 6:27 PM MDT
Nautical Twilight 6:20 AM MDT 6:59 PM MDT
Astronomical Twilight 5:48 AM MDT 7:32 PM MDT
Moon 10:04 AM MDT 8:10 PM MDT
Length of Visible Light 11h 33m
Length of Day
10h 36m
Tomorrow will be 2m 36s shorter.
Waxing Crescent, 6% of the Moon is Illuminated
Today
Waxing Crescent
Oct 30
First Quarter
Nov 6
Full
Nov 14
Last Quarter
Nov 22
New

Today's Extremes

State Highs State Lows

Community

WunderPhotos

Upload Photos

1,765,117 photos uploaded!

Nearby

Snow Depth

Station Depth Elevation
Windy Peak 0 in 7900 ft
Crow Creek 0 in 8330 ft
Laprele Creek 0 in 8375 ft
Reno Hill 0 in 8500 ft
Sand Lake 4 in 10050 ft

Earthquake Activity

City Distance Mag. Time & Date
No recent earthquake activity has been reported nearby.
Minimum magnitude displayed is 2.5.

Coastal Water Temperatures

Place Temperature
No Stations Reporting

Nearby Weather Stations